Time;durP1;ratioP1;P1;durP2;ratioP2;P2;SDS_P1;SDS_P2;PMS_P1;PMS_P2;Temp;Humidity;BMP_temperature;BMP_pressure;BME280_temperature;BME280_humidity;BME280_pressure;Samples;Min_cycle;Max_cycle;Signal;HPM_P1;HPM_P2
2022/02/07 00:01:17;;;;;;;5.03;1.75;;;5.80;99.90;;;;;;5082217;28;20020;-75
2022/02/07 00:03:51;;;;;;;11.88;1.63;;;5.90;99.90;;;;;;5085145;28;20028;-74
2022/02/07 00:06:16;;;;;;;13.90;2.15;;;5.90;99.90;;;;;;5084701;28;20480;-74
2022/02/07 00:08:43;;;;;;;10.45;1.63;;;6.00;99.90;;;;;;5088510;28;20055;-74
2022/02/07 00:11:08;;;;;;;10.43;2.00;;;6.00;99.90;;;;;;5086342;28;20020;-74
2022/02/07 00:13:34;;;;;;;12.68;2.35;;;5.90;99.90;;;;;;5086938;28;20090;-74
2022/02/07 00:16:00;;;;;;;10.65;1.83;;;5.90;99.90;;;;;;5089885;28;20039;-74
2022/02/07 00:18:26;;;;;;;12.25;2.08;;;5.90;99.90;;;;;;5091462;28;20035;-74
2022/02/07 00:20:52;;;;;;;7.47;2.08;;;5.90;99.90;;;;;;5083936;28;20115;-74
2022/02/07 00:23:19;;;;;;;12.63;2.40;;;5.90;99.90;;;;;;5089462;28;20469;-74
2022/02/07 00:25:44;;;;;;;16.25;2.50;;;5.90;99.90;;;;;;5084722;28;20089;-74
2022/02/07 00:28:10;;;;;;;14.10;2.58;;;6.00;99.90;;;;;;5089887;28;20024;-74
2022/02/07 00:30:36;;;;;;;8.68;2.10;;;6.00;99.90;;;;;;5085533;28;20099;-74
2022/02/07 00:33:02;;;;;;;15.07;2.30;;;5.90;99.90;;;;;;5086641;28;20032;-74
2022/02/07 00:35:28;;;;;;;12.02;1.98;;;6.00;99.90;;;;;;5084156;28;20373;-73
2022/02/07 00:37:56;;;;;;;12.57;2.35;;;6.00;99.90;;;;;;5088440;28;20365;-74
2022/02/07 00:43:14;;;;;;;18.33;3.13;;;6.00;99.90;;;;;;5084985;28;20036;-74
2022/02/07 00:46:33;;;;;;;22.13;3.00;;;6.00;99.90;;;;;;5083536;28;20043;-73
2022/02/07 00:48:27;;;;;;;18.25;3.15;;;6.00;99.90;;;;;;5084987;28;20043;-73
2022/02/07 00:50:55;;;;;;;14.82;3.03;;;6.00;99.90;;;;;;5087532;28;20538;-73
2022/02/07 00:53:21;;;;;;;17.50;2.55;;;5.90;99.90;;;;;;5088874;28;20029;-74
2022/02/07 00:55:47;;;;;;;14.00;2.90;;;5.70;99.90;;;;;;5086484;28;20649;-73
2022/02/07 00:58:13;;;;;;;16.73;3.00;;;5.80;99.90;;;;;;5092007;28;20024;-73
2022/02/07 01:00:39;;;;;;;14.38;2.65;;;5.80;99.90;;;;;;5081410;28;20449;-75
2022/02/07 01:03:05;;;;;;;14.88;2.67;;;5.80;99.90;;;;;;5087983;28;20095;-74
2022/02/07 01:05:31;;;;;;;19.40;2.88;;;5.80;99.90;;;;;;5082736;28;20097;-74
2022/02/07 01:07:58;;;;;;;20.90;3.13;;;5.80;99.90;;;;;;5085326;28;20476;-74
2022/02/07 01:11:12;;;;;;;12.90;2.33;;;5.70;99.90;;;;;;5086981;28;20028;-73
2022/02/07 01:13:26;;;;;;;18.02;3.20;;;5.70;99.90;;;;;;5084252;28;20032;-75
2022/02/07 01:23:33;;;;;;;18.17;3.10;;;5.90;99.90;;;;;;5089968;28;20044;-74
2022/02/07 01:48:16;;;;;;;8.25;1.58;;;5.90;99.90;;;;;;5079908;28;20051;-72
2022/02/07 01:50:55;;;;;;;5.95;1.35;;;5.80;99.90;;;;;;5088467;28;20040;-73
2022/02/07 01:56:07;;;;;;;19.63;2.58;;;5.80;99.90;;;;;;5091091;28;20144;-73
2022/02/07 01:58:33;;;;;;;10.15;1.42;;;5.80;99.90;;;;;;5086945;28;20020;-74
2022/02/07 02:00:58;;;;;;;10.13;1.48;;;5.80;99.90;;;;;;5090179;28;20468;-73
2022/02/07 02:03:24;;;;;;;6.80;1.30;;;5.80;99.90;;;;;;5093469;28;20036;-73
2022/02/07 02:05:51;;;;;;;9.73;1.38;;;5.80;99.90;;;;;;5093691;28;20472;-74
2022/02/07 02:08:18;;;;;;;10.65;1.40;;;5.70;99.90;;;;;;5085631;28;20043;-73
2022/02/07 02:10:46;;;;;;;7.43;1.45;;;5.80;99.90;;;;;;5091920;28;20502;-74
2022/02/07 02:13:17;;;;;;;11.27;2.45;;;5.80;99.90;;;;;;5085796;28;20032;-73
2022/02/07 02:15:52;;;;;;;12.82;2.20;;;5.80;99.90;;;;;;5093086;28;20066;-73
2022/02/07 02:47:33;;;;;;;17.52;2.17;;;6.00;99.90;;;;;;5086109;28;20043;-73
2022/02/07 02:50:09;;;;;;;17.40;2.90;;;6.10;99.90;;;;;;5089873;28;20365;-74
2022/02/07 02:52:35;;;;;;;18.38;2.88;;;6.10;99.90;;;;;;5085439;28;20020;-74
2022/02/07 02:55:01;;;;;;;27.38;3.78;;;6.10;99.90;;;;;;5091920;28;20032;-74
2022/02/07 02:57:27;;;;;;;21.00;3.22;;;6.10;99.90;;;;;;5085507;28;20019;-74
2022/02/07 02:59:53;;;;;;;22.42;3.25;;;5.90;99.90;;;;;;5090106;28;20032;-73
2022/02/07 03:02:18;;;;;;;16.67;2.15;;;6.00;99.90;;;;;;5086331;28;20031;-74
2022/02/07 03:04:44;;;;;;;14.75;2.88;;;5.90;99.90;;;;;;5090410;28;20042;-74
2022/02/07 03:07:10;;;;;;;16.05;2.97;;;5.90;99.90;;;;;;5085765;28;20116;-75
2022/02/07 03:09:45;;;;;;;12.27;2.35;;;5.90;99.90;;;;;;5089519;28;20032;-73
2022/02/07 03:12:10;;;;;;;8.80;2.40;;;5.90;99.90;;;;;;5093599;28;20115;-74
2022/02/07 03:14:43;;;;;;;13.80;3.00;;;6.00;99.90;;;;;;5092661;28;20107;-74
2022/02/07 03:17:08;;;;;;;18.27;2.80;;;6.10;99.90;;;;;;5091403;28;20020;-74
2022/02/07 03:19:34;;;;;;;18.67;2.30;;;6.00;99.90;;;;;;5086620;28;20077;-72
2022/02/07 03:22:00;;;;;;;13.82;2.08;;;6.00;99.90;;;;;;5086834;28;20386;-73
2022/02/07 03:24:26;;;;;;;10.93;2.10;;;6.00;99.90;;;;;;5090216;28;20058;-73
2022/02/07 03:26:51;;;;;;;18.50;2.72;;;6.00;99.90;;;;;;5086229;28;20036;-74
2022/02/07 03:29:17;;;;;;;11.52;2.42;;;6.00;99.90;;;;;;5094389;28;20024;-72
2022/02/07 03:31:43;;;;;;;15.18;3.33;;;6.00;99.90;;;;;;5084627;28;20084;-73
2022/02/07 03:34:09;;;;;;;14.77;2.20;;;5.90;99.90;;;;;;5091195;28;20085;-74
2022/02/07 03:36:35;;;;;;;17.38;2.53;;;5.90;99.90;;;;;;5085135;28;20028;-73
2022/02/07 03:39:02;;;;;;;12.30;2.17;;;5.90;99.90;;;;;;5090993;28;20527;-73
2022/02/07 03:41:28;;;;;;;15.98;2.58;;;6.00;99.90;;;;;;5085855;28;20042;-72
2022/02/07 03:43:54;;;;;;;15.80;2.38;;;6.00;99.90;;;;;;5091322;28;20488;-74
2022/02/07 03:46:20;;;;;;;17.10;2.15;;;6.00;99.90;;;;;;5091958;28;20032;-73
2022/02/07 03:48:45;;;;;;;13.88;2.30;;;5.90;99.90;;;;;;5089898;28;20103;-73
2022/02/07 03:51:11;;;;;;;13.63;2.20;;;5.90;99.90;;;;;;5091098;28;20019;-73
2022/02/07 03:53:37;;;;;;;11.10;2.78;;;5.80;99.90;;;;;;5088895;28;20365;-73
2022/02/07 03:56:04;;;;;;;23.25;2.92;;;5.80;99.90;;;;;;5082662;28;20024;-73
2022/02/07 03:58:30;;;;;;;11.15;2.28;;;5.80;99.90;;;;;;5088353;28;20370;-74
2022/02/07 04:00:56;;;;;;;15.77;2.95;;;5.80;99.90;;;;;;5088104;28;20039;-73
2022/02/07 04:03:27;;;;;;;13.93;2.20;;;5.70;99.90;;;;;;5087300;28;20083;-73
2022/02/07 04:06:35;;;;;;;17.33;2.90;;;5.70;99.90;;;;;;5087262;28;20033;-73
2022/02/07 04:08:45;;;;;;;19.13;2.30;;;5.70;99.90;;;;;;5088426;28;20450;-73
2022/02/07 04:11:37;;;;;;;10.85;2.22;;;5.70;99.90;;;;;;5081955;28;20553;-73
2022/02/07 04:13:57;;;;;;;18.33;2.97;;;5.70;99.90;;;;;;5084118;28;20028;-73
2022/02/07 04:16:26;;;;;;;24.08;2.67;;;5.70;99.90;;;;;;5085278;28;20024;-73
2022/02/07 04:19:17;;;;;;;18.52;3.05;;;5.70;99.90;;;;;;5089564;28;20031;-74
2022/02/07 04:21:44;;;;;;;11.32;2.53;;;5.70;99.90;;;;;;5081173;28;20042;-73
2022/02/07 04:24:10;;;;;;;12.07;1.88;;;5.80;99.90;;;;;;5089067;28;20032;-73
2022/02/07 04:26:36;;;;;;;14.00;2.80;;;5.60;99.90;;;;;;5086120;28;20373;-73
2022/02/07 04:29:02;;;;;;;19.25;2.55;;;5.70;99.90;;;;;;5085908;28;20081;-73
2022/02/07 04:31:28;;;;;;;14.80;2.40;;;5.70;99.90;;;;;;5090226;28;20073;-73
2022/02/07 04:33:55;;;;;;;14.32;3.15;;;5.80;99.90;;;;;;5086723;28;20035;-73
2022/02/07 04:36:21;;;;;;;11.88;2.30;;;5.70;99.90;;;;;;5085108;28;20039;-73
2022/02/07 04:38:47;;;;;;;14.43;2.10;;;5.80;99.90;;;;;;5085505;28;20032;-73
2022/02/07 04:41:13;;;;;;;23.02;2.72;;;5.80;99.90;;;;;;5090966;28;20032;-73
2022/02/07 04:43:50;;;;;;;11.77;2.47;;;5.80;99.90;;;;;;5086325;28;20382;-73
2022/02/07 04:46:47;;;;;;;18.15;2.40;;;5.70;99.90;;;;;;5083105;28;20031;-74
2022/02/07 04:49:25;;;;;;;11.90;1.88;;;5.90;99.90;;;;;;5084963;28;20020;-75
2022/02/07 04:52:06;;;;;;;19.15;2.90;;;5.80;99.90;;;;;;5085659;28;20031;-73
2022/02/07 05:15:48;;;;;;;11.68;2.50;;;5.80;99.90;;;;;;5085003;28;20071;-73
2022/02/07 05:18:14;;;;;;;12.82;2.67;;;5.90;99.90;;;;;;5089791;28;20035;-74
2022/02/07 05:20:39;;;;;;;21.83;2.83;;;6.00;99.90;;;;;;5082485;28;20839;-74
2022/02/07 05:23:05;;;;;;;15.52;3.30;;;5.90;99.90;;;;;;5090022;28;20461;-73
2022/02/07 05:25:31;;;;;;;12.80;2.13;;;6.00;99.90;;;;;;5078932;28;20507;-73
2022/02/07 05:27:57;;;;;;;23.52;2.47;;;6.00;99.90;;;;;;5085014;28;20028;-73
2022/02/07 05:30:22;;;;;;;16.10;2.53;;;5.90;99.90;;;;;;5084883;28;20020;-74
2022/02/07 05:32:48;;;;;;;16.67;2.22;;;6.00;99.90;;;;;;5090270;28;20039;-74
2022/02/07 05:35:13;;;;;;;19.63;2.90;;;6.00;99.90;;;;;;5090168;28;20464;-75
2022/02/07 05:37:39;;;;;;;17.27;2.42;;;6.00;99.90;;;;;;5089797;28;20444;-73
2022/02/07 05:40:10;;;;;;;20.48;3.25;;;5.90;99.90;;;;;;5089839;28;20095;-73
2022/02/07 05:42:38;;;;;;;23.98;3.28;;;5.80;99.90;;;;;;5091406;28;20036;-73
2022/02/07 05:45:06;;;;;;;15.32;2.83;;;5.70;99.90;;;;;;5089995;28;20480;-73
2022/02/07 05:47:32;;;;;;;21.73;2.88;;;5.80;99.90;;;;;;5087934;28;20158;-76
2022/02/07 05:49:58;;;;;;;24.55;3.03;;;5.70;99.90;;;;;;5091723;28;20099;-72
2022/02/07 05:52:24;;;;;;;12.98;2.22;;;5.70;99.90;;;;;;5087883;28;20062;-73
2022/02/07 05:54:49;;;;;;;23.77;3.08;;;5.70;99.90;;;;;;5095481;28;20024;-74
2022/02/07 05:57:15;;;;;;;21.98;3.97;;;5.80;99.90;;;;;;5093156;28;20050;-73
2022/02/07 05:59:40;;;;;;;14.32;2.60;;;5.70;99.90;;;;;;5087498;28;20025;-74
2022/02/07 06:02:06;;;;;;;12.98;2.65;;;5.70;99.90;;;;;;5093036;28;20105;-74
2022/02/07 06:04:32;;;;;;;20.33;3.38;;;5.80;99.90;;;;;;5084584;28;20471;-74
2022/02/07 06:06:57;;;;;;;12.30;3.33;;;5.70;99.90;;;;;;5083396;28;20540;-73
2022/02/07 06:09:23;;;;;;;18.98;2.47;;;5.80;99.90;;;;;;5086949;28;20031;-74
2022/02/07 06:11:49;;;;;;;24.45;3.88;;;5.70;99.90;;;;;;5090511;28;20111;-74
2022/02/07 06:14:15;;;;;;;14.75;2.80;;;5.70;99.90;;;;;;5089039;28;20078;-74
2022/02/07 06:16:41;;;;;;;28.08;3.78;;;5.80;99.90;;;;;;5094038;28;20081;-74
2022/02/07 06:19:06;;;;;;;20.00;3.95;;;5.80;99.90;;;;;;5092921;28;20024;-73
2022/02/07 06:21:34;;;;;;;25.25;3.83;;;5.80;99.90;;;;;;5089221;28;20028;-74
2022/02/07 06:24:02;;;;;;;21.13;3.35;;;5.70;99.90;;;;;;5076941;28;20029;-74
2022/02/07 06:26:29;;;;;;;17.38;3.45;;;5.70;99.90;;;;;;5090356;28;20039;-74
2022/02/07 06:28:56;;;;;;;27.00;3.58;;;5.80;99.90;;;;;;5086958;28;20020;-74
2022/02/07 06:31:22;;;;;;;16.55;3.03;;;5.80;99.90;;;;;;5085871;28;20480;-73
2022/02/07 06:33:48;;;;;;;27.85;3.88;;;5.70;99.90;;;;;;5089596;28;20154;-73
2022/02/07 06:36:13;;;;;;;19.05;3.83;;;5.80;99.90;;;;;;5092015;28;20511;-73
2022/02/07 06:38:39;;;;;;;23.13;3.63;;;5.80;99.90;;;;;;5090292;28;20464;-74
2022/02/07 06:41:05;;;;;;;18.40;3.63;;;5.80;99.90;;;;;;5086376;28;20024;-74
2022/02/07 06:43:31;;;;;;;25.45;3.47;;;5.70;99.90;;;;;;5092175;28;20032;-74
2022/02/07 06:45:58;;;;;;;22.90;3.13;;;5.70;99.90;;;;;;5085594;28;20039;-74
2022/02/07 06:48:25;;;;;;;21.40;3.25;;;5.70;99.90;;;;;;5089751;28;20028;-74
2022/02/07 06:50:51;;;;;;;22.30;3.35;;;5.80;99.90;;;;;;5087187;28;20104;-75
2022/02/07 06:53:17;;;;;;;24.83;3.70;;;5.90;99.90;;;;;;5092180;28;20468;-74
2022/02/07 06:55:42;;;;;;;20.42;2.67;;;5.90;99.90;;;;;;5086539;28;20385;-74
2022/02/07 06:58:08;;;;;;;20.77;3.58;;;6.00;99.90;;;;;;5089158;28;20024;-74
2022/02/07 07:00:34;;;;;;;18.33;3.55;;;6.10;99.90;;;;;;5084582;28;20592;-75
2022/02/07 07:03:00;;;;;;;28.58;3.63;;;6.20;99.90;;;;;;5090600;28;20487;-75
2022/02/07 07:05:26;;;;;;;25.20;3.17;;;6.20;99.90;;;;;;5087900;28;20040;-75
2022/02/07 07:07:52;;;;;;;21.08;4.05;;;6.20;99.90;;;;;;5084999;28;20021;-74
2022/02/07 07:10:18;;;;;;;21.58;3.75;;;6.20;99.90;;;;;;5094589;28;20052;-75
2022/02/07 07:12:48;;;;;;;24.58;3.60;;;6.20;99.90;;;;;;5085574;28;20028;-74
2022/02/07 07:15:18;;;;;;;23.48;3.80;;;6.10;99.90;;;;;;5091653;28;20408;-75
2022/02/07 07:17:44;;;;;;;22.55;3.47;;;6.10;99.90;;;;;;5083662;28;20028;-74
2022/02/07 07:20:11;;;;;;;29.90;5.10;;;6.10;99.90;;;;;;5086258;28;20028;-75
2022/02/07 07:22:37;;;;;;;15.43;3.08;;;6.10;99.90;;;;;;5089476;28;20028;-75
2022/02/07 07:25:04;;;;;;;19.00;3.28;;;6.10;99.90;;;;;;5085788;28;20116;-74
2022/02/07 07:27:36;;;;;;;21.17;3.38;;;6.10;99.90;;;;;;5090105;28;20606;-75
2022/02/07 07:30:03;;;;;;;22.23;4.18;;;6.00;99.90;;;;;;5084197;28;20100;-74
2022/02/07 07:32:31;;;;;;;20.63;3.67;;;6.00;99.90;;;;;;5093644;28;20012;-74
2022/02/07 07:34:56;;;;;;;30.70;4.43;;;5.90;99.90;;;;;;5089308;28;20066;-74
2022/02/07 07:37:23;;;;;;;20.30;3.90;;;5.90;99.90;;;;;;5084306;28;20083;-74
2022/02/07 07:39:49;;;;;;;22.83;3.63;;;5.90;99.90;;;;;;5090147;28;20046;-74
2022/02/07 07:42:15;;;;;;;23.30;3.13;;;5.90;99.90;;;;;;5084792;28;20077;-74
2022/02/07 07:44:41;;;;;;;24.13;3.45;;;5.90;99.90;;;;;;5089617;28;20032;-74
2022/02/07 07:47:14;;;;;;;22.73;5.43;;;6.00;99.90;;;;;;5090223;28;20020;-74
2022/02/07 07:49:47;;;;;;;;;;;6.00;99.90;;;;;;5085742;28;20115;-71
2022/02/07 07:52:16;;;;;;;21.85;4.22;;;5.90;99.90;;;;;;5084075;28;20098;-74
2022/02/07 07:54:50;;;;;;;16.60;3.95;;;5.90;99.90;;;;;;5085074;28;20070;-72
2022/02/07 08:02:47;;;;;;;20.95;4.03;;;6.00;99.90;;;;;;5087298;28;20419;-72
2022/02/07 08:05:35;;;;;;;23.40;3.75;;;5.90;99.90;;;;;;5090886;28;20032;-73
2022/02/07 08:08:19;;;;;;;23.20;5.45;;;6.00;99.90;;;;;;5085308;28;20107;-73
2022/02/07 08:10:59;;;;;;;18.60;3.00;;;6.10;99.90;;;;;;5087447;28;20092;-73
2022/02/07 08:13:29;;;;;;;26.00;4.18;;;6.20;99.90;;;;;;5088359;28;20039;-73
2022/02/07 08:15:54;;;;;;;30.13;4.65;;;6.10;99.90;;;;;;5089904;28;20032;-73
2022/02/07 08:18:20;;;;;;;27.38;4.50;;;6.20;99.90;;;;;;5087320;28;20440;-79
2022/02/07 08:20:46;;;;;;;23.15;4.70;;;6.20;99.90;;;;;;5084482;28;20027;-72
2022/02/07 08:23:11;;;;;;;19.55;3.80;;;6.20;99.90;;;;;;5084766;28;20500;-72
2022/02/07 08:25:37;;;;;;;18.02;3.70;;;6.20;99.90;;;;;;5087359;28;20040;-76
2022/02/07 08:28:03;;;;;;;17.30;3.63;;;6.30;99.90;;;;;;5089478;28;20037;-73
2022/02/07 08:30:29;;;;;;;22.83;3.75;;;6.30;99.90;;;;;;5089179;28;20383;-73
2022/02/07 08:32:57;;;;;;;26.00;3.45;;;6.40;99.90;;;;;;5088098;28;20592;-74
2022/02/07 08:35:22;;;;;;;31.92;9.23;;;6.30;99.90;;;;;;5084925;28;20132;-73
2022/02/07 08:37:49;;;;;;;25.75;4.07;;;6.40;99.90;;;;;;5089531;28;20099;-73
2022/02/07 08:40:15;;;;;;;27.80;4.20;;;6.50;99.90;;;;;;5086064;28;20024;-74
2022/02/07 08:42:41;;;;;;;20.17;3.50;;;6.60;99.90;;;;;;5084493;28;20400;-74
2022/02/07 08:45:07;;;;;;;19.58;4.43;;;6.70;99.90;;;;;;5092339;28;20023;-74
2022/02/07 08:47:33;;;;;;;24.52;4.13;;;6.70;99.90;;;;;;5089311;28;20384;-72
2022/02/07 08:49:59;;;;;;;22.48;2.92;;;6.80;99.90;;;;;;5088426;28;20536;-72
2022/02/07 08:52:25;;;;;;;26.58;4.13;;;6.90;99.90;;;;;;5088732;28;20024;-72
2022/02/07 08:54:52;;;;;;;18.88;3.75;;;6.90;99.90;;;;;;5089781;28;20377;-81
2022/02/07 08:57:34;;;;;;;19.27;3.55;;;6.90;99.90;;;;;;5086190;28;20093;-77
2022/02/07 09:00:12;;;;;;;17.73;3.20;;;7.00;99.90;;;;;;5088342;28;21429;-73
2022/02/07 09:10:35;;;;;;;19.42;2.85;;;6.80;99.90;;;;;;5084179;28;20036;-73
2022/02/07 09:13:00;;;;;;;19.42;3.47;;;6.80;99.90;;;;;;5085386;28;20043;-73
2022/02/07 09:18:07;;;;;;;20.13;3.20;;;7.00;99.90;;;;;;5089052;28;20032;-77
2022/02/07 09:20:37;;;;;;;16.75;3.58;;;7.00;99.90;;;;;;5084757;28;20029;-76
2022/02/07 09:23:04;;;;;;;17.23;4.07;;;7.00;99.90;;;;;;5088253;28;20484;-74
2022/02/07 09:25:30;;;;;;;23.63;3.33;;;7.10;99.90;;;;;;5084547;28;20058;-78
2022/02/07 09:27:56;;;;;;;22.50;3.72;;;7.20;99.90;;;;;;5088603;28;20105;-73
2022/02/07 09:30:22;;;;;;;17.75;3.03;;;7.20;99.90;;;;;;5086102;28;20024;-73
2022/02/07 09:32:47;;;;;;;13.25;3.40;;;7.30;99.90;;;;;;5087304;28;20031;-74
2022/02/07 09:35:13;;;;;;;24.92;4.22;;;7.40;99.90;;;;;;5090620;28;20497;-74
2022/02/07 09:37:39;;;;;;;17.88;3.08;;;7.40;99.90;;;;;;5086382;28;20020;-73
2022/02/07 09:40:06;;;;;;;15.80;3.30;;;7.40;99.90;;;;;;5084891;28;20031;-73
2022/02/07 09:42:33;;;;;;;18.23;3.33;;;7.50;99.90;;;;;;5086482;28;20081;-73
2022/02/07 09:45:09;;;;;;;21.02;3.20;;;7.60;99.90;;;;;;5087362;28;20078;-73
2022/02/07 09:47:37;;;;;;;18.50;3.65;;;7.70;99.90;;;;;;5089836;28;20099;-72
2022/02/07 09:50:04;;;;;;;29.77;3.70;;;7.70;99.90;;;;;;5088564;28;20392;-72
2022/02/07 09:52:29;;;;;;;19.70;3.05;;;7.70;99.90;;;;;;5083010;28;20754;-72
2022/02/07 09:54:55;;;;;;;15.43;3.33;;;7.80;99.90;;;;;;5085350;28;20032;-72
2022/02/07 09:57:21;;;;;;;13.05;3.20;;;7.90;99.90;;;;;;5087713;28;20028;-72
2022/02/07 09:59:50;;;;;;;11.23;2.80;;;7.80;99.90;;;;;;5082837;28;20052;-72
2022/02/07 10:02:24;;;;;;;16.35;2.90;;;7.80;99.90;;;;;;5083333;28;20108;-73
2022/02/07 10:04:51;;;;;;;16.77;3.17;;;7.80;99.90;;;;;;5078963;28;20032;-72
2022/02/07 10:07:29;;;;;;;19.10;2.75;;;8.00;99.90;;;;;;5084085;28;20075;-73
2022/02/07 10:10:18;;;;;;;18.08;3.03;;;8.00;99.90;;;;;;5081411;28;20028;-73
2022/02/07 10:15:41;;;;;;;18.52;2.65;;;8.00;99.90;;;;;;5089244;28;20459;-73
2022/02/07 10:40:29;;;;;;;14.88;3.47;;;8.00;99.90;;;;;;5091958;28;20540;-73
2022/02/07 10:48:33;;;;;;;11.25;3.03;;;8.00;99.90;;;;;;5090849;28;20533;-73
2022/02/07 10:51:22;;;;;;;17.75;3.17;;;7.90;99.90;;;;;;5085459;28;20598;-73
2022/02/07 10:54:05;;;;;;;13.55;2.63;;;8.00;99.90;;;;;;5088409;28;20024;-73
2022/02/07 10:56:41;;;;;;;15.63;2.75;;;8.10;99.90;;;;;;5082393;28;20360;-75
2022/02/07 10:59:10;;;;;;;10.98;3.35;;;8.10;99.90;;;;;;5091541;28;20425;-75
2022/02/07 11:04:25;;;;;;;15.43;3.28;;;8.10;99.90;;;;;;5092067;28;20036;-74
2022/02/07 11:06:57;;;;;;;12.70;3.33;;;8.20;99.90;;;;;;5093069;28;20067;-74
2022/02/07 11:09:35;;;;;;;16.27;3.30;;;8.20;99.90;;;;;;5081866;28;20362;-75
2022/02/07 11:20:14;;;;;;;15.13;3.22;;;8.20;99.90;;;;;;5084446;28;20033;-75
2022/02/07 11:23:05;;;;;;;21.55;3.50;;;8.30;99.90;;;;;;5086713;28;20030;-75
2022/02/07 11:25:50;;;;;;;13.30;2.42;;;8.20;99.90;;;;;;5090848;28;20491;-76
2022/02/07 11:28:22;;;;;;;14.07;2.83;;;8.40;99.90;;;;;;5090640;28;20031;-76
2022/02/07 11:31:12;;;;;;;16.58;2.50;;;8.50;99.90;;;;;;5086053;28;20027;-75
2022/02/07 11:34:16;;;;;;;20.38;2.85;;;8.60;99.90;;;;;;5088917;28;20036;-75
2022/02/07 11:36:36;;;;;;;10.77;2.63;;;8.60;99.90;;;;;;5089412;28;20540;-75
2022/02/07 11:39:10;;;;;;;17.73;2.60;;;8.60;99.90;;;;;;5090160;28;20020;-74
2022/02/07 11:41:59;;;;;;;17.08;2.92;;;8.50;99.90;;;;;;5085807;28;20055;-76
2022/02/07 11:44:45;;;;;;;18.55;2.97;;;8.40;99.90;;;;;;5085487;28;20049;-75
2022/02/07 11:47:29;;;;;;;18.00;3.15;;;8.40;99.90;;;;;;5086361;28;20040;-75
2022/02/07 11:50:02;;;;;;;10.60;2.45;;;8.40;99.90;;;;;;5085699;28;20081;-75
2022/02/07 11:52:37;;;;;;;14.10;2.97;;;8.40;99.90;;;;;;5087317;28;20023;-75
2022/02/07 11:55:08;;;;;;;14.13;2.92;;;8.50;99.90;;;;;;5084609;28;20009;-74
2022/02/07 11:57:37;;;;;;;15.57;3.17;;;8.60;99.90;;;;;;5083728;28;20075;-74
2022/02/07 12:00:18;;;;;;;16.52;3.03;;;8.60;99.90;;;;;;5087244;28;20120;-75
2022/02/07 12:02:49;;;;;;;15.88;2.70;;;8.70;99.90;;;;;;5089316;28;20495;-74
2022/02/07 12:05:20;;;;;;;11.35;2.28;;;8.80;99.90;;;;;;5083751;28;20124;-74
2022/02/07 12:07:59;;;;;;;15.45;2.97;;;8.70;99.90;;;;;;5091081;28;20012;-74
2022/02/07 12:10:27;;;;;;;8.52;2.03;;;8.80;99.90;;;;;;5084506;28;20020;-74
2022/02/07 12:12:57;;;;;;;17.17;3.40;;;8.80;99.90;;;;;;5085625;28;20021;-75
2022/02/07 12:15:44;;;;;;;12.27;2.92;;;8.90;99.90;;;;;;5088263;28;20032;-75
2022/02/07 12:18:12;;;;;;;11.30;2.53;;;8.80;99.90;;;;;;5087753;28;20020;-75
2022/02/07 12:20:39;;;;;;;8.95;2.70;;;8.80;99.90;;;;;;5086324;28;20028;-75
2022/02/07 12:23:06;;;;;;;12.52;2.47;;;8.70;99.90;;;;;;5083311;28;20032;-74
2022/02/07 12:25:52;;;;;;;8.63;1.73;;;8.60;99.90;;;;;;5088208;28;20079;-74
2022/02/07 12:28:49;;;;;;;7.75;2.50;;;8.60;99.90;;;;;;5079181;28;20107;-75
2022/02/07 12:31:20;;;;;;;10.90;2.58;;;8.50;99.90;;;;;;5088990;28;20032;-75
2022/02/07 12:34:16;;;;;;;15.02;3.75;;;8.60;99.90;;;;;;5087438;28;20036;-74
2022/02/07 12:36:42;;;;;;;10.45;2.25;;;8.70;99.90;;;;;;5084390;28;20047;-75
2022/02/07 12:39:13;;;;;;;14.55;2.25;;;8.90;99.90;;;;;;5090197;28;20475;-74
2022/02/07 12:41:38;;;;;;;16.60;2.10;;;9.00;99.90;;;;;;5091786;28;20052;-74
2022/02/07 12:44:07;;;;;;;12.43;3.05;;;9.10;99.90;;;;;;5079481;28;20496;-74
2022/02/07 12:46:33;;;;;;;12.10;2.80;;;9.20;99.90;;;;;;5086470;28;20048;-74
2022/02/07 12:49:09;;;;;;;10.57;2.33;;;9.30;99.90;;;;;;5089555;28;20017;-74
2022/02/07 12:51:42;;;;;;;15.63;2.50;;;9.20;99.90;;;;;;5089627;28;20043;-74
2022/02/07 12:54:09;;;;;;;17.83;2.60;;;9.30;99.90;;;;;;5087109;28;20056;-75
2022/02/07 12:56:36;;;;;;;12.77;2.45;;;9.40;99.90;;;;;;5088730;28;20033;-75
2022/02/07 12:59:03;;;;;;;13.85;2.80;;;9.50;99.90;;;;;;5086079;28;20370;-75
2022/02/07 13:01:30;;;;;;;11.65;2.47;;;9.50;99.90;;;;;;5087508;28;20020;-75
2022/02/07 13:04:03;;;;;;;11.05;2.15;;;9.50;99.90;;;;;;5082733;28;20488;-75
2022/02/07 13:06:34;;;;;;;5.70;2.33;;;9.40;99.90;;;;;;5086253;28;20037;-77
2022/02/07 13:09:04;;;;;;;14.23;3.03;;;9.30;99.90;;;;;;5087592;28;20051;-74
2022/02/07 13:11:33;;;;;;;10.63;2.25;;;9.30;99.90;;;;;;5087413;28;20400;-76
2022/02/07 13:14:00;;;;;;;15.57;2.78;;;9.20;99.90;;;;;;5086505;28;20024;-75
2022/02/07 13:16:32;;;;;;;13.95;3.20;;;9.20;99.90;;;;;;5084213;28;20493;-74
2022/02/07 13:19:16;;;;;;;10.32;2.72;;;9.30;99.90;;;;;;5081002;28;20058;-74
2022/02/07 13:21:45;;;;;;;14.05;2.50;;;9.30;99.90;;;;;;5084880;28;20020;-74
2022/02/07 13:24:38;;;;;;;9.40;2.90;;;9.40;99.90;;;;;;5090288;28;20039;-74
2022/02/07 13:27:17;;;;;;;10.95;2.72;;;9.30;99.90;;;;;;5078043;28;20060;-74
2022/02/07 13:29:49;;;;;;;7.90;2.42;;;9.40;99.90;;;;;;5089008;28;20502;-74
2022/02/07 13:32:16;;;;;;;;;;;9.40;99.90;;;;;;5089929;28;20020;-71
2022/02/07 13:34:42;;;;;;;9.93;2.10;;;9.30;99.90;;;;;;5084336;28;19977;-73
2022/02/07 13:37:15;;;;;;;9.60;2.40;;;9.40;99.90;;;;;;5083233;28;20485;-73
2022/02/07 13:40:01;;;;;;;8.88;2.40;;;9.50;99.90;;;;;;5090153;28;20499;-74
2022/02/07 13:42:32;;;;;;;18.17;2.45;;;9.40;99.90;;;;;;5086397;28;20028;-74
2022/02/07 13:45:13;;;;;;;12.98;2.70;;;9.30;99.90;;;;;;5082913;28;20423;-79
2022/02/07 13:47:49;;;;;;;12.88;2.45;;;9.30;99.90;;;;;;5087896;28;20044;-73
2022/02/07 13:50:20;;;;;;;10.88;2.08;;;9.40;99.90;;;;;;5087161;28;20037;-73
2022/02/07 13:52:49;;;;;;;17.83;2.70;;;9.40;99.90;;;;;;5089020;28;20023;-75
2022/02/07 13:55:21;;;;;;;10.15;2.50;;;9.30;99.90;;;;;;5089247;28;20059;-74
2022/02/07 13:58:02;;;;;;;13.07;3.08;;;9.10;99.90;;;;;;5088299;28;20024;-73
2022/02/07 14:00:29;;;;;;;7.25;2.92;;;9.00;99.90;;;;;;5089488;28;20686;-73
2022/02/07 14:03:07;;;;;;;10.32;2.17;;;9.00;99.90;;;;;;5090343;28;20025;-73
2022/02/07 14:05:42;;;;;;;10.85;2.58;;;9.00;99.90;;;;;;5095272;28;20447;-72
2022/02/07 14:08:10;;;;;;;9.18;2.08;;;8.90;99.90;;;;;;5088346;28;20020;-72
2022/02/07 14:10:38;;;;;;;8.30;2.08;;;8.90;99.90;;;;;;5090987;28;20024;-72
2022/02/07 14:13:09;;;;;;;8.85;2.75;;;9.00;99.90;;;;;;5086940;28;20035;-74
2022/02/07 14:15:36;;;;;;;10.98;2.25;;;9.00;99.90;;;;;;5083139;28;20062;-73
2022/02/07 14:18:04;;;;;;;9.48;2.05;;;9.10;99.90;;;;;;5090706;28;20026;-73
2022/02/07 14:20:33;;;;;;;8.63;2.25;;;9.00;99.90;;;;;;5086160;28;20506;-73
2022/02/07 14:22:58;;;;;;;13.35;2.55;;;9.00;99.90;;;;;;5092366;28;20488;-71
2022/02/07 14:25:28;;;;;;;5.63;1.58;;;9.00;99.90;;;;;;5089960;28;20078;-72
2022/02/07 14:27:55;;;;;;;5.93;1.67;;;8.90;99.90;;;;;;5095381;28;20020;-73
2022/02/07 14:30:22;;;;;;;12.20;2.25;;;9.00;99.90;;;;;;5089762;28;20068;-73
2022/02/07 14:32:48;;;;;;;7.75;2.05;;;8.90;99.90;;;;;;5086344;28;20046;-76
2022/02/07 14:35:13;;;;;;;8.60;1.88;;;8.90;99.90;;;;;;5092959;28;20084;-77
2022/02/07 14:37:39;;;;;;;7.53;2.88;;;8.90;99.90;;;;;;5084919;28;20028;-82
2022/02/07 14:40:05;;;;;;;9.43;2.22;;;8.90;99.90;;;;;;5091091;28;20024;-74
2022/02/07 14:42:31;;;;;;;9.45;2.03;;;9.00;99.90;;;;;;5086946;28;20036;-74
2022/02/07 14:44:59;;;;;;;7.40;2.42;;;8.90;99.90;;;;;;5089651;28;20085;-74
2022/02/07 14:47:42;;;;;;;8.32;1.70;;;8.90;99.90;;;;;;5084112;28;20031;-74
2022/02/07 14:50:09;;;;;;;8.35;1.60;;;8.90;99.90;;;;;;5089246;28;20077;-74
2022/02/07 14:52:35;;;;;;;8.15;1.83;;;8.90;99.90;;;;;;5089863;28;20032;-75
2022/02/07 14:55:01;;;;;;;6.40;2.13;;;8.90;99.90;;;;;;5090547;28;20031;-74
2022/02/07 14:57:28;;;;;;;4.38;1.23;;;8.80;99.90;;;;;;5088125;28;20024;-74
2022/02/07 14:59:53;;;;;;;7.90;1.63;;;8.80;99.90;;;;;;5090112;28;20043;-79
2022/02/07 15:02:21;;;;;;;6.43;1.80;;;8.80;99.90;;;;;;5085565;28;20021;-75
2022/02/07 15:04:48;;;;;;;7.88;1.83;;;8.80;99.90;;;;;;5087576;28;20553;-74
2022/02/07 15:07:14;;;;;;;5.80;1.27;;;8.80;99.90;;;;;;5086679;28;20094;-78
2022/02/07 15:09:39;;;;;;;5.25;1.55;;;8.80;99.90;;;;;;5094457;28;20028;-75
2022/02/07 15:12:05;;;;;;;6.00;1.63;;;8.80;99.90;;;;;;5091331;28;20039;-77
2022/02/07 15:14:31;;;;;;;8.85;1.92;;;8.90;99.90;;;;;;5088231;28;20040;-74
2022/02/07 15:16:57;;;;;;;9.63;1.67;;;8.80;99.90;;;;;;5093396;28;20035;-75
2022/02/07 15:19:24;;;;;;;9.93;2.00;;;8.80;99.90;;;;;;5091672;28;20110;-74
2022/02/07 15:21:50;;;;;;;8.00;1.58;;;8.80;99.90;;;;;;5085929;28;20028;-74
2022/02/07 15:24:16;;;;;;;6.10;1.70;;;8.90;99.90;;;;;;5090508;28;20063;-74